This is the latest recevied weather packets stored in our database for station/object KJ5BMY-13. If no packets are shown the sender has not sent any weather packets the latest 10 day(s).
| Time | Temp. | Humidity | Pressure | Rain* | Wind** | Luminosity | Snow |
|---|---|---|---|---|---|---|---|
| 1778001566 | 27.78° C | 68% | 1007.2 hPa | 0 mm | - | - | - |
| 1778001264 | 27.78° C | 68% | 1007.6 hPa | 0 mm | - | - | - |
| 1778000960 | 27.78° C | 69% | 1007.3 hPa | 0 mm | - | - | - |
| 1778000657 | 27.78° C | 68% | 1007.5 hPa | 0 mm | - | - | - |
| 1778000352 | 27.78° C | 68% | 1007.6 hPa | 0 mm | - | - | - |
| 1777999139 | 27.78° C | 69% | 1007.4 hPa | 0 mm | - | - | - |
| 1777998838 | 27.78° C | 68% | 1007.3 hPa | 0 mm | - | - | - |
| 1777998535 | 27.22° C | 69% | 1007.2 hPa | 0 mm | - | - | - |
| 1777998231 | 26.67° C | 71% | 1007.2 hPa | 0 mm | - | - | - |
| 1777997928 | 27.78° C | 69% | 1007.1 hPa | 0 mm | - | - | - |
| 1777997322 | 26.67° C | 70% | 1007 hPa | 0 mm | - | - | - |
| 1777997021 | 27.22° C | 70% | 1006.8 hPa | 0 mm | - | - | - |
| 1777996717 | 27.22° C | 70% | 1006.9 hPa | 0 mm | - | - | - |
| 1777995503 | 26.67° C | 73% | 1007.1 hPa | 0 mm | - | - | - |
| 1777995200 | 26.67° C | 72% | 1007.1 hPa | 0 mm | - | - | - |
| 1777994897 | 26.67° C | 72% | 1007.3 hPa | 0 mm | - | - | - |
| 1777994594 | 26.11° C | 74% | 1007.1 hPa | 0 mm | - | - | - |
| 1777994293 | 26.11° C | 75% | 1007.2 hPa | 0 mm | - | - | - |
| 1777993991 | 25.56° C | 75% | 1007.2 hPa | 0 mm | - | - | - |
| 1777993687 | 25° C | 76% | 1007.1 hPa | 0 mm | - | - | - |
| 1777993079 | 25° C | 77% | 1007.2 hPa | 0 mm | - | - | - |
| 1777992778 | 24.44° C | 77% | 1007.3 hPa | 0 mm | - | - | - |
| 1777992475 | 25° C | 77% | 1007.4 hPa | 0 mm | - | - | - |
| 1777991870 | 24.44° C | 78% | 1007 hPa | 0 mm | - | - | - |
| 1777991264 | 25° C | 77% | 1007.3 hPa | 0 mm | - | - | - |
* Rain latest hour (hover to see other rain measurements)
** Current wind speed in m/s (hover to see current wind gust speed)